Time;durP1;ratioP1;P1;durP2;ratioP2;P2;SDS_P1;SDS_P2;PMS_P1;PMS_P2;Temp;Humidity;BMP_temperature;BMP_pressure;BME280_temperature;BME280_humidity;BME280_pressure;Samples;Min_cycle;Max_cycle;Signal;HPM_P1;HPM_P2
2023/05/29 00:01:26;;;;;;;;;;;13.40;99.90;;;;;;21079749;28;19916;-75
2023/05/29 00:11:27;;;;;;;;;;;14.20;99.90;;;;;;21078988;28;20377;-76
2023/05/29 00:21:27;;;;;;;;;;;14.20;99.90;;;;;;21078470;28;19966;-76
2023/05/29 00:31:28;;;;;;;;;;;13.60;99.90;;;;;;21077274;28;19920;-76
2023/05/29 00:41:29;;;;;;;;;;;13.00;99.90;;;;;;21076898;28;19919;-76
2023/05/29 00:51:31;;;;;;;;;;;14.00;99.90;;;;;;21085690;28;19927;-76
2023/05/29 01:01:32;;;;;;;;;;;13.60;99.90;;;;;;21075663;28;19923;-76
2023/05/29 01:11:36;;;;;;;;;;;13.50;99.90;;;;;;21136125;28;19915;-75
2023/05/29 01:21:45;;;;;;;;;;;13.20;99.90;;;;;;21086648;28;19947;-80
2023/05/29 01:31:47;;;;;;;;;;;13.50;99.90;;;;;;21107813;28;19927;-79
2023/05/29 01:41:51;;;;;;;;;;;13.30;99.90;;;;;;21054947;28;20004;-78
2023/05/29 01:51:52;;;;;;;;;;;13.80;99.90;;;;;;21071174;28;19916;-74
2023/05/29 02:01:52;;;;;;;;;;;13.70;99.90;;;;;;21032427;28;19923;-74
2023/05/29 02:11:53;;;;;;;;;;;13.40;99.90;;;;;;21037670;28;19958;-74
2023/05/29 02:21:54;;;;;;;;;;;13.40;99.90;;;;;;21038477;28;19962;-74
2023/05/29 02:31:55;;;;;;;;;;;13.10;99.90;;;;;;21090992;28;19979;-74
2023/05/29 02:41:56;;;;;;;;;;;12.80;99.90;;;;;;21064755;28;19919;-74
2023/05/29 02:51:56;;;;;;;;;;;13.20;99.90;;;;;;21078747;28;20011;-74
2023/05/29 03:01:57;;;;;;;;;;;13.10;99.90;;;;;;21084155;28;19916;-74
2023/05/29 03:12:00;;;;;;;;;;;13.10;99.90;;;;;;21049474;28;19924;-74
2023/05/29 03:22:02;;;;;;;;;;;13.20;99.90;;;;;;21059848;28;19991;-74
2023/05/29 03:32:04;;;;;;;;;;;13.10;99.90;;;;;;21074592;28;19986;-74
2023/05/29 03:42:07;;;;;;;;;;;12.90;99.90;;;;;;21024918;28;20440;-75
2023/05/29 03:52:08;;;;;;;;;;;11.80;99.90;;;;;;20990518;28;19974;-75
2023/05/29 04:02:10;;;;;;;;;;;11.50;99.90;;;;;;20989327;28;19920;-75
2023/05/29 04:12:11;;;;;;;;;;;11.70;99.90;;;;;;20989000;28;19923;-74
2023/05/29 04:22:11;;;;;;;;;;;11.80;99.90;;;;;;20991297;28;20002;-74
2023/05/29 04:32:12;;;;;;;;;;;11.70;99.90;;;;;;20989180;28;19923;-74
2023/05/29 04:42:14;;;;;;;;;;;12.00;99.90;;;;;;20933660;22;19931;-77
2023/05/29 04:52:16;;;;;;;;;;;11.80;99.90;;;;;;20855498;28;19967;-76
2023/05/29 05:02:17;;;;;;;;;;;11.80;99.90;;;;;;20821330;28;20335;-76
2023/05/29 05:12:17;;;;;;;;;;;11.80;99.90;;;;;;20856322;28;19991;-76
2023/05/29 05:22:18;;;;;;;;;;;12.40;99.90;;;;;;20919217;28;20008;-76
2023/05/29 05:32:19;;;;;;;;;;;12.60;99.90;;;;;;20919109;28;20282;-76
2023/05/29 05:42:25;;;;;;;;;;;12.80;99.90;;;;;;20918056;28;19939;-76
2023/05/29 05:52:33;;;;;;;;;;;13.20;99.90;;;;;;20949803;28;19920;-76
2023/05/29 06:02:35;;;;;;;;;;;13.90;99.90;;;;;;20933579;28;19913;-76
2023/05/29 06:12:36;;;;;;;;;;;14.30;99.90;;;;;;20919803;28;20018;-77
2023/05/29 06:22:50;;;;;;;;;;;14.80;99.90;;;;;;20924618;28;20434;-76
2023/05/29 06:32:51;;;;;;;;;;;15.40;99.90;;;;;;20919247;28;19921;-75
2023/05/29 06:42:52;;;;;;;;;;;16.00;99.90;;;;;;20896070;28;20461;-75
2023/05/29 06:53:05;;;;;;;;;;;16.50;99.90;;;;;;20915218;28;19916;-76
2023/05/29 07:03:22;;;;;;;;;;;16.80;99.90;;;;;;20882849;28;20418;-75
2023/05/29 07:13:24;;;;;;;;;;;17.50;99.90;;;;;;20884755;28;19994;-76
2023/05/29 07:23:25;;;;;;;;;;;18.20;99.90;;;;;;20891861;28;19920;-76
2023/05/29 07:33:27;;;;;;;;;;;19.10;99.90;;;;;;20887483;28;19959;-77
2023/05/29 07:43:30;;;;;;;;;;;19.70;99.90;;;;;;20930198;28;20020;-76
2023/05/29 07:53:35;;;;;;;;;;;20.30;99.90;;;;;;20924378;28;20329;-76
2023/05/29 08:03:36;;;;;;;;;;;21.30;99.90;;;;;;20923712;28;19913;-75
2023/05/29 08:13:37;;;;;;;;;;;21.80;99.90;;;;;;20901878;28;20398;-76
2023/05/29 08:23:38;;;;;;;;;;;22.10;99.90;;;;;;20884724;28;20012;-76
2023/05/29 08:33:39;;;;;;;;;;;22.90;99.90;;;;;;20900880;28;19917;-75
2023/05/29 08:43:41;;;;;;;;;;;23.10;99.90;;;;;;20905813;28;19916;-75
2023/05/29 08:53:41;;;;;;;;;;;22.90;99.90;;;;;;20892052;28;20008;-77
2023/05/29 09:03:42;;;;;;;;;;;24.30;99.60;;;;;;20899764;28;19952;-76
2023/05/29 09:13:43;;;;;;;;;;;25.10;98.90;;;;;;20904179;28;19943;-76
2023/05/29 09:23:44;;;;;;;;;;;24.60;97.70;;;;;;20896149;28;19916;-76
2023/05/29 09:33:48;;;;;;;;;;;25.20;96.60;;;;;;20911440;28;19923;-77
2023/05/29 09:43:50;;;;;;;;;;;25.90;93.30;;;;;;20915494;28;19960;-75
2023/05/29 09:53:51;;;;;;;;;;;26.10;92.40;;;;;;20918733;28;19985;-76
2023/05/29 10:03:52;;;;;;;;;;;26.50;90.30;;;;;;20917877;28;19912;-75
2023/05/29 10:13:53;;;;;;;;;;;26.80;85.20;;;;;;20900864;28;20286;-75
2023/05/29 10:23:54;;;;;;;;;;;26.10;86.20;;;;;;20930793;28;19940;-76
2023/05/29 10:34:01;;;;;;;;;;;26.80;83.20;;;;;;20912005;28;20393;-76
2023/05/29 10:44:02;;;;;;;;;;;27.40;80.40;;;;;;20939252;23;20301;-76
2023/05/29 10:54:05;;;;;;;;;;;27.50;82.80;;;;;;20937401;28;19986;-75
2023/05/29 11:04:21;;;;;;;;;;;27.60;83.90;;;;;;20910717;28;19920;-76
2023/05/29 11:14:22;;;;;;;;;;;28.40;79.50;;;;;;20909303;28;19917;-75
2023/05/29 11:24:23;;;;;;;;;;;28.00;80.00;;;;;;20888608;28;20370;-75
2023/05/29 11:34:25;;;;;;;;;;;28.20;78.20;;;;;;20903173;28;20459;-76
2023/05/29 11:44:26;;;;;;;;;;;27.60;81.60;;;;;;20937263;28;19916;-74
2023/05/29 11:54:27;;;;;;;;;;;28.40;77.00;;;;;;20963946;28;19964;-75
2023/05/29 12:04:28;;;;;;;;;;;28.70;73.20;;;;;;20908120;28;19975;-76
2023/05/29 12:14:28;;;;;;;;;;;28.60;76.10;;;;;;20968234;28;19916;-75
2023/05/29 12:24:31;;;;;;;;;;;27.60;76.90;;;;;;20949990;28;20008;-79
2023/05/29 12:34:39;;;;;;;;;;;28.00;77.20;;;;;;20919684;28;19917;-76
2023/05/29 12:44:41;;;;;;;;;;;28.60;78.10;;;;;;20913783;28;19920;-76
2023/05/29 12:54:42;;;;;;;;;;;28.50;75.00;;;;;;20909558;28;19921;-76
2023/05/29 13:04:42;;;;;;;;;;;28.90;70.90;;;;;;20904669;28;19995;-76
2023/05/29 13:14:45;;;;;;;;;;;28.80;71.50;;;;;;20897415;28;20401;-76
2023/05/29 13:24:45;;;;;;;;;;;28.40;71.50;;;;;;20921924;28;19940;-75
2023/05/29 13:34:46;;;;;;;;;;;28.40;73.10;;;;;;20919985;28;19964;-76
2023/05/29 13:44:47;;;;;;;;;;;28.60;72.50;;;;;;20904237;28;19916;-76
2023/05/29 13:54:48;;;;;;;;;;;28.80;77.80;;;;;;20919124;28;20418;-76
2023/05/29 14:04:49;;;;;;;;;;;29.00;73.80;;;;;;20910759;28;19967;-75
2023/05/29 14:14:50;;;;;;;;;;;27.90;79.20;;;;;;20927700;28;19921;-76
2023/05/29 14:24:50;;;;;;;;;;;28.10;74.40;;;;;;20922875;28;19917;-76
2023/05/29 14:34:52;;;;;;;;;;;28.10;73.80;;;;;;20934557;28;19979;-75
2023/05/29 14:44:53;;;;;;;;;;;28.50;72.80;;;;;;20920243;28;20015;-75
2023/05/29 14:54:53;;;;;;;;;;;28.70;70.00;;;;;;20930683;28;19963;-75
2023/05/29 15:04:56;;;;;;;;;;;28.80;67.80;;;;;;20925575;28;20012;-75
2023/05/29 15:14:56;;;;;;;;;;;28.40;69.70;;;;;;20907641;28;19916;-75
2023/05/29 15:24:57;;;;;;;;;;;28.30;66.00;;;;;;20924073;28;20402;-75
2023/05/29 15:34:58;;;;;;;;;;;27.70;66.40;;;;;;20940021;28;19966;-75
2023/05/29 15:44:58;;;;;;;;;;;27.70;63.70;;;;;;20927167;28;19913;-75
2023/05/29 15:54:59;;;;;;;;;;;27.30;63.70;;;;;;20909406;28;19917;-76
2023/05/29 16:05:00;;;;;;;;;;;27.00;61.90;;;;;;20912881;28;19923;-76
2023/05/29 16:15:00;;;;;;;;;;;26.50;64.10;;;;;;20919311;28;19940;-75
2023/05/29 16:25:01;;;;;;;;;;;26.30;65.30;;;;;;20960432;28;20378;-75
2023/05/29 16:35:03;;;;;;;;;;;25.70;66.20;;;;;;20917510;28;19916;-75
2023/05/29 16:45:03;;;;;;;;;;;25.70;65.10;;;;;;20941919;28;20548;-75
2023/05/29 16:55:04;;;;;;;;;;;25.40;67.40;;;;;;20982178;28;20032;-76
2023/05/29 17:05:05;;;;;;;;;;;25.30;67.50;;;;;;20927687;28;19912;-75
2023/05/29 17:15:06;;;;;;;;;;;25.00;67.50;;;;;;20948462;28;19923;-75
2023/05/29 17:25:07;;;;;;;;;;;24.90;68.60;;;;;;20955111;28;19916;-76
2023/05/29 17:35:08;;;;;;;;;;;24.70;67.30;;;;;;20921190;28;19935;-75
2023/05/29 17:45:08;;;;;;;;;;;24.20;67.90;;;;;;20946874;28;19920;-75
2023/05/29 17:55:09;;;;;;;;;;;24.20;68.90;;;;;;20963056;28;19916;-75
2023/05/29 18:05:10;;;;;;;;;;;24.80;69.50;;;;;;20933496;28;19924;-76
2023/05/29 18:15:11;;;;;;;;;;;25.20;68.00;;;;;;20956960;28;20302;-75
2023/05/29 18:25:14;;;;;;;;;;;24.70;68.80;;;;;;20961434;28;19923;-75
2023/05/29 18:35:15;;;;;;;;;;;23.50;72.80;;;;;;20933685;28;20003;-75
2023/05/29 18:45:15;;;;;;;;;;;22.60;75.90;;;;;;20954630;28;20031;-76
2023/05/29 18:55:17;;;;;;;;;;;21.90;77.70;;;;;;20941911;28;19916;-75
2023/05/29 19:05:19;;;;;;;;;;;21.50;79.50;;;;;;20932737;28;19913;-76
2023/05/29 19:15:19;;;;;;;;;;;21.00;81.40;;;;;;20956033;28;20011;-77
2023/05/29 19:25:20;;;;;;;;;;;20.70;82.80;;;;;;20931560;28;20438;-77
2023/05/29 19:35:21;;;;;;;;;;;20.40;84.60;;;;;;20935201;28;20308;-77
2023/05/29 19:45:22;;;;;;;;;;;20.10;86.90;;;;;;20918217;28;20398;-77
2023/05/29 19:55:22;;;;;;;;;;;19.30;90.40;;;;;;20926300;28;19943;-77
2023/05/29 20:05:23;;;;;;;;;;;19.00;91.80;;;;;;20955518;28;20372;-78
2023/05/29 20:15:24;;;;;;;;;;;18.70;92.90;;;;;;20914578;28;19917;-78
2023/05/29 20:25:26;;;;;;;;;;;18.20;94.90;;;;;;20996273;28;19951;-79
2023/05/29 20:35:28;;;;;;;;;;;17.80;96.20;;;;;;20946777;28;20279;-79
2023/05/29 20:45:29;;;;;;;;;;;17.40;98.00;;;;;;20915500;28;20007;-77
2023/05/29 20:55:30;;;;;;;;;;;17.10;99.30;;;;;;20926507;28;19917;-77
2023/05/29 21:05:30;;;;;;;;;;;17.10;99.10;;;;;;20925088;28;20346;-78
2023/05/29 21:15:31;;;;;;;;;;;16.70;99.90;;;;;;20937612;28;19917;-77
2023/05/29 21:25:32;;;;;;;;;;;16.40;99.90;;;;;;20901059;28;19913;-76
2023/05/29 21:35:32;;;;;;;;;;;16.20;99.90;;;;;;20937501;28;19916;-77
2023/05/29 21:45:33;;;;;;;;;;;16.10;99.90;;;;;;20952131;28;19967;-77
2023/05/29 21:55:34;;;;;;;;;;;15.80;99.90;;;;;;20913062;28;19924;-76
2023/05/29 22:05:34;;;;;;;;;;;15.40;99.90;;;;;;20906139;28;19912;-77
2023/05/29 22:15:35;;;;;;;;;;;15.30;99.90;;;;;;20891429;28;20306;-77
2023/05/29 22:25:36;;;;;;;;;;;15.10;99.90;;;;;;20887661;28;20000;-77
2023/05/29 22:35:36;;;;;;;;;;;15.00;99.90;;;;;;20922186;28;20394;-76
2023/05/29 22:45:37;;;;;;;;;;;15.10;99.90;;;;;;20954160;28;19962;-77
2023/05/29 22:55:38;;;;;;;;;;;15.80;99.90;;;;;;20930542;28;19921;-77
2023/05/29 23:05:38;;;;;;;;;;;15.90;99.90;;;;;;20924303;28;19924;-77
2023/05/29 23:15:43;;;;;;;;;;;16.20;99.90;;;;;;20919432;28;20415;-76
2023/05/29 23:25:46;;;;;;;;;;;16.00;99.90;;;;;;20926937;28;19912;-76
2023/05/29 23:35:47;;;;;;;;;;;15.50;99.90;;;;;;20916504;28;19934;-77
2023/05/29 23:45:47;;;;;;;;;;;15.50;99.90;;;;;;20938369;28;19916;-76
2023/05/29 23:55:49;;;;;;;;;;;15.60;99.90;;;;;;20931700;28;19916;-77
